createdAt,value
2023-05-14T00:00:34.946Z,42.7404
2023-05-14T00:01:36.789Z,42.7343
2023-05-14T00:02:38.716Z,42.7211
2023-05-14T00:03:40.539Z,42.7121
2023-05-14T00:04:42.294Z,42.6988
2023-05-14T00:05:44.168Z,42.6862
2023-05-14T00:06:45.980Z,42.6880
2023-05-14T00:07:47.823Z,42.6943
2023-05-14T00:08:49.662Z,42.6807
2023-05-14T00:09:51.494Z,42.6685
2023-05-14T00:10:53.361Z,42.6526
2023-05-14T00:11:55.187Z,42.6372
2023-05-14T00:12:57.035Z,42.6357
2023-05-14T00:13:58.897Z,42.6442
2023-05-14T00:15:00.695Z,42.6569
2023-05-14T00:16:02.578Z,42.6555
2023-05-14T00:17:04.402Z,42.6436
2023-05-14T00:18:06.326Z,42.6452
2023-05-14T00:19:08.082Z,42.6422
2023-05-14T00:20:09.935Z,42.6229
2023-05-14T00:21:11.764Z,42.6112
2023-05-14T00:22:13.593Z,42.6018
2023-05-14T00:23:15.434Z,42.5892
2023-05-14T00:24:17.269Z,42.5744
2023-05-14T00:25:19.105Z,42.5638
2023-05-14T00:26:20.988Z,42.5584
2023-05-14T00:27:22.807Z,42.5466
2023-05-14T00:28:24.637Z,42.5391
2023-05-14T00:29:26.478Z,42.5398
2023-05-14T00:30:28.310Z,42.5387
2023-05-14T00:31:30.165Z,42.5284
2023-05-14T00:32:32.033Z,42.5324
2023-05-14T00:33:33.841Z,42.5294
2023-05-14T00:34:35.687Z,42.5283
2023-05-14T00:35:37.509Z,42.5138
2023-05-14T00:36:39.392Z,42.5054
2023-05-14T00:37:41.196Z,42.4970
2023-05-14T00:38:43.051Z,42.4860
2023-05-14T00:39:44.887Z,42.4819
2023-05-14T00:40:46.712Z,42.4768
2023-05-14T00:41:48.563Z,42.4812
2023-05-14T00:42:50.416Z,42.4763
2023-05-14T00:43:52.244Z,42.4589
2023-05-14T00:44:54.119Z,42.4469
2023-05-14T00:45:55.948Z,42.4451
2023-05-14T00:46:57.804Z,42.4462
2023-05-14T00:47:59.721Z,42.4551
2023-05-14T00:49:01.437Z,42.4582
2023-05-14T00:50:03.273Z,42.4551
2023-05-14T00:51:05.159Z,42.4414
2023-05-14T00:52:06.970Z,42.4410
2023-05-14T00:53:08.817Z,42.4344
2023-05-14T00:54:10.638Z,42.4300
2023-05-14T00:55:12.482Z,42.4332
2023-05-14T00:56:14.322Z,42.4299
2023-05-14T00:57:16.193Z,42.4214
2023-05-14T00:58:18.052Z,42.4224
2023-05-14T00:59:19.864Z,42.4160
2023-05-14T01:00:21.867Z,42.4172
2023-05-14T01:01:23.547Z,42.4236
2023-05-14T01:02:25.457Z,42.4202
2023-05-14T01:03:27.405Z,42.4132
2023-05-14T01:04:29.062Z,42.4143
2023-05-14T01:05:30.868Z,42.4190
2023-05-14T01:06:32.707Z,42.4181
2023-05-14T01:07:34.548Z,42.4074
2023-05-14T01:08:36.399Z,42.4057
2023-05-14T01:09:38.251Z,42.3973
2023-05-14T01:10:40.086Z,42.3918
2023-05-14T01:11:41.908Z,42.3754
2023-05-14T01:12:43.754Z,42.3597
2023-05-14T01:13:45.597Z,42.3420
2023-05-14T01:14:47.453Z,42.3224
2023-05-14T01:15:49.302Z,42.3127
2023-05-14T01:16:51.170Z,42.3020
2023-05-14T01:17:52.970Z,42.2951
2023-05-14T01:18:54.897Z,42.2799
2023-05-14T01:19:56.635Z,42.2716
2023-05-14T01:20:58.529Z,42.2685
2023-05-14T01:22:00.335Z,42.2556
2023-05-14T01:23:02.142Z,42.2456
2023-05-14T01:24:04.017Z,42.2349
2023-05-14T01:25:05.837Z,42.2366
2023-05-14T01:26:07.677Z,42.2372
2023-05-14T01:27:09.515Z,42.2226
2023-05-14T01:28:11.361Z,42.2144
2023-05-14T01:29:13.181Z,42.2202
2023-05-14T01:30:15.037Z,42.2172
2023-05-14T01:31:16.895Z,42.2149
2023-05-14T01:32:18.777Z,42.2099
2023-05-14T01:33:20.565Z,42.2105
2023-05-14T01:34:22.391Z,42.2164
2023-05-14T01:35:24.247Z,42.2147
2023-05-14T01:36:26.097Z,42.1990
2023-05-14T01:37:27.934Z,42.1881
2023-05-14T01:38:29.779Z,42.1798
2023-05-14T01:39:31.656Z,42.1700
2023-05-14T01:40:33.487Z,42.1561
2023-05-14T01:41:35.281Z,42.1430
2023-05-14T01:42:37.122Z,42.1360
2023-05-14T01:43:38.986Z,42.1339
2023-05-14T01:44:40.824Z,42.1351
2023-05-14T01:45:42.732Z,42.1300
2023-05-14T01:46:44.496Z,42.1170
2023-05-14T01:47:46.372Z,42.1038
2023-05-14T01:48:48.176Z,42.0963
2023-05-14T01:49:50.027Z,42.0809
2023-05-14T01:50:51.867Z,42.0704
2023-05-14T01:51:53.719Z,42.0590
2023-05-14T01:52:55.546Z,42.0427
2023-05-14T01:53:57.400Z,42.0390
2023-05-14T01:54:59.224Z,42.0350
2023-05-14T01:56:01.053Z,42.0389
2023-05-14T01:57:02.939Z,42.0400
2023-05-14T01:58:04.738Z,42.0387
2023-05-14T01:59:06.574Z,42.0226
2023-05-14T02:00:08.419Z,42.0032
2023-05-14T02:01:10.289Z,41.9931
2023-05-14T02:02:13.048Z,41.9904
2023-05-14T02:03:14.003Z,41.9881
2023-05-14T02:04:15.855Z,41.9822
2023-05-14T02:05:25.162Z,41.9819
2023-05-14T02:06:19.437Z,41.9929
2023-05-14T02:07:21.288Z,41.9800
2023-05-14T02:08:23.147Z,41.9600
2023-05-14T02:09:24.987Z,41.9389
2023-05-14T02:10:34.379Z,41.9313
2023-05-14T02:11:28.681Z,41.9309
2023-05-14T02:12:30.490Z,41.9216
2023-05-14T02:13:32.336Z,41.9116
2023-05-14T02:14:34.192Z,41.9031
2023-05-14T02:15:36.076Z,41.9021
2023-05-14T02:16:37.844Z,41.9001
2023-05-14T02:17:39.733Z,41.8967
2023-05-14T02:18:41.592Z,41.8933
2023-05-14T02:19:43.363Z,41.8940
2023-05-14T02:20:45.196Z,41.8932
2023-05-14T02:21:47.050Z,41.8874
2023-05-14T02:22:48.889Z,41.8785
2023-05-14T02:23:50.730Z,41.8723
2023-05-14T02:24:52.575Z,41.8610
2023-05-14T02:25:54.415Z,41.8618
2023-05-14T02:26:56.234Z,41.8570
2023-05-14T02:27:58.084Z,41.8476
2023-05-14T02:28:59.926Z,41.8411
2023-05-14T02:30:01.795Z,41.8237
2023-05-14T02:31:03.652Z,41.8122
2023-05-14T02:32:05.510Z,41.7948
2023-05-14T02:33:07.418Z,41.7928
2023-05-14T02:34:09.117Z,41.7862
2023-05-14T02:35:10.962Z,41.7724
2023-05-14T02:36:12.802Z,41.7535
2023-05-14T02:37:14.628Z,41.7486
2023-05-14T02:38:16.491Z,41.7392
2023-05-14T02:39:18.334Z,41.7362
2023-05-14T02:40:20.158Z,41.7289
2023-05-14T02:41:21.979Z,41.7227
2023-05-14T02:42:23.826Z,41.7158
2023-05-14T02:43:25.663Z,41.7227
2023-05-14T02:44:27.520Z,41.7274
2023-05-14T02:45:29.337Z,41.7212
2023-05-14T02:46:31.295Z,41.7119
2023-05-14T02:47:33.142Z,41.6929
2023-05-14T02:48:34.921Z,41.6968
2023-05-14T02:49:36.767Z,41.6940
2023-05-14T02:50:38.607Z,41.6995
2023-05-14T02:51:40.430Z,41.7021
2023-05-14T02:52:42.271Z,41.7083
2023-05-14T02:53:44.120Z,41.7106
2023-05-14T02:54:45.951Z,41.7144
2023-05-14T02:55:47.801Z,41.7038
2023-05-14T02:56:49.636Z,41.7103
2023-05-14T02:57:51.454Z,41.7096
2023-05-14T02:58:53.303Z,41.7050
2023-05-14T02:59:55.136Z,41.6991
2023-05-14T03:00:57.003Z,41.6937
2023-05-14T03:01:58.873Z,41.6874
2023-05-14T03:03:00.709Z,41.6856
2023-05-14T03:04:02.472Z,41.6787
2023-05-14T03:05:04.324Z,41.6872
2023-05-14T03:06:06.153Z,41.6930
2023-05-14T03:07:07.990Z,41.6862
2023-05-14T03:08:09.851Z,41.6751
2023-05-14T03:09:11.657Z,41.6828
2023-05-14T03:10:13.508Z,41.6884
2023-05-14T03:11:15.345Z,41.6940
2023-05-14T03:12:17.174Z,41.6877
2023-05-14T03:13:19.015Z,41.6889
2023-05-14T03:14:20.872Z,41.6943
2023-05-14T03:15:22.681Z,41.6941
2023-05-14T03:16:24.546Z,41.6888
2023-05-14T03:17:26.366Z,41.6779
2023-05-14T03:18:28.228Z,41.6608
2023-05-14T03:19:30.044Z,41.6553
2023-05-14T03:20:31.876Z,41.6497
2023-05-14T03:21:33.688Z,41.6433
2023-05-14T03:22:35.528Z,41.6342
2023-05-14T03:23:37.397Z,41.6205
2023-05-14T03:24:39.215Z,41.6011
2023-05-14T03:25:41.056Z,41.6081
2023-05-14T03:26:42.938Z,41.6195
2023-05-14T03:27:44.724Z,41.6075
2023-05-14T03:28:46.552Z,41.5962
2023-05-14T03:29:48.378Z,41.5891
2023-05-14T03:30:50.245Z,41.5763
2023-05-14T03:31:52.068Z,41.5587
2023-05-14T03:32:53.961Z,41.5402
2023-05-14T03:33:55.724Z,41.5367
2023-05-14T03:34:57.559Z,41.5255
2023-05-14T03:35:59.402Z,41.5230
2023-05-14T03:37:01.247Z,41.5208
2023-05-14T03:38:03.080Z,41.5050
2023-05-14T03:39:04.957Z,41.5051
2023-05-14T03:40:06.750Z,41.4819
2023-05-14T03:41:08.579Z,41.4738
2023-05-14T03:42:10.409Z,41.4696
2023-05-14T03:43:12.271Z,41.4578
2023-05-14T03:44:14.107Z,41.4578
2023-05-14T03:45:15.979Z,41.4453
2023-05-14T03:46:17.771Z,41.4273
2023-05-14T03:47:19.607Z,41.4189
2023-05-14T03:48:21.536Z,41.4180
2023-05-14T03:49:23.294Z,41.4118
2023-05-14T03:50:25.354Z,41.4064
2023-05-14T03:51:26.977Z,41.3985
2023-05-14T03:52:28.799Z,41.3880
2023-05-14T03:53:30.646Z,41.3933
2023-05-14T03:54:32.488Z,41.4007
2023-05-14T03:55:34.321Z,41.3919
2023-05-14T03:56:36.172Z,41.3896
2023-05-14T03:57:38.040Z,41.3890
2023-05-14T03:58:39.844Z,41.3905
2023-05-14T03:59:41.701Z,41.3883
2023-05-14T04:00:43.546Z,41.3956
2023-05-14T04:01:45.371Z,41.4007
2023-05-14T04:02:47.311Z,41.4022
2023-05-14T04:03:49.211Z,41.4107
2023-05-14T04:04:50.935Z,41.4119
2023-05-14T04:05:52.734Z,41.4197
2023-05-14T04:06:54.578Z,41.4136
2023-05-14T04:07:56.407Z,41.4066
2023-05-14T04:08:58.251Z,41.4053
2023-05-14T04:10:01.793Z,41.4131
2023-05-14T04:11:01.942Z,41.4367
2023-05-14T04:12:03.788Z,41.4495
2023-05-14T04:13:05.622Z,41.4650
2023-05-14T04:14:07.460Z,41.4722
2023-05-14T04:15:09.288Z,41.4740
2023-05-14T04:16:11.180Z,41.4737
2023-05-14T04:17:12.977Z,41.4724
2023-05-14T04:18:14.849Z,41.4621
2023-05-14T04:19:16.749Z,41.4545
2023-05-14T04:20:18.482Z,41.4573
2023-05-14T04:21:20.314Z,41.4605
2023-05-14T04:22:22.175Z,41.4606
2023-05-14T04:23:23.979Z,41.4653
2023-05-14T04:24:25.810Z,41.4663
2023-05-14T04:25:27.648Z,41.4638
2023-05-14T04:26:29.487Z,41.4712
2023-05-14T04:27:31.341Z,41.4739
2023-05-14T04:28:33.201Z,41.4714
2023-05-14T04:29:35.008Z,41.4702
2023-05-14T04:30:36.846Z,41.4652
2023-05-14T04:31:38.708Z,41.4580
2023-05-14T04:32:40.577Z,41.4536
2023-05-14T04:33:42.364Z,41.4446
2023-05-14T04:34:44.221Z,41.4384
2023-05-14T04:35:46.038Z,41.4279
2023-05-14T04:36:47.872Z,41.4241
2023-05-14T04:37:49.717Z,41.4183
2023-05-14T04:38:51.568Z,41.4167
2023-05-14T04:39:53.392Z,41.4139
2023-05-14T04:40:55.252Z,41.4210
2023-05-14T04:41:57.067Z,41.4190
2023-05-14T04:42:58.903Z,41.4225
2023-05-14T04:44:00.729Z,41.4261
2023-05-14T04:45:02.595Z,41.4298
2023-05-14T04:46:04.453Z,41.4333
2023-05-14T04:47:06.267Z,41.4345
2023-05-14T04:48:08.136Z,41.4351
2023-05-14T04:49:09.924Z,41.4395
2023-05-14T04:50:11.767Z,41.4426
2023-05-14T04:51:13.593Z,41.4624
2023-05-14T04:52:15.449Z,41.4722
2023-05-14T04:53:17.306Z,41.4742
2023-05-14T04:54:19.156Z,41.4663
2023-05-14T04:55:20.966Z,41.4730
2023-05-14T04:56:22.807Z,41.4819
2023-05-14T04:57:24.629Z,41.4891
2023-05-14T04:58:26.476Z,41.4899
2023-05-14T04:59:28.346Z,41.4916
2023-05-14T05:00:30.170Z,41.4882
2023-05-14T05:01:32.028Z,41.4819
2023-05-14T05:02:33.877Z,41.4828
2023-05-14T05:03:35.690Z,41.4895
2023-05-14T05:04:37.496Z,41.4937
2023-05-14T05:05:39.373Z,41.4932
2023-05-14T05:06:41.214Z,41.4915
2023-05-14T05:07:43.016Z,41.4901
2023-05-14T05:08:44.852Z,41.4807
2023-05-14T05:09:46.687Z,41.4750
2023-05-14T05:10:48.553Z,41.4643
2023-05-14T05:11:50.406Z,41.4569
2023-05-14T05:12:52.226Z,41.4507
2023-05-14T05:13:54.045Z,41.4505
2023-05-14T05:14:55.881Z,41.4643
2023-05-14T05:15:57.755Z,41.4743
2023-05-14T05:16:59.569Z,41.4860
2023-05-14T05:18:01.441Z,41.4905
2023-05-14T05:19:03.283Z,41.5009
2023-05-14T05:20:05.070Z,41.5106
2023-05-14T05:21:06.920Z,41.5169
2023-05-14T05:22:08.754Z,41.5266
2023-05-14T05:23:10.575Z,41.5440
2023-05-14T05:24:12.441Z,41.5437
2023-05-14T05:25:14.251Z,41.5539
2023-05-14T05:26:16.107Z,41.5577
2023-05-14T05:27:17.934Z,41.5600
2023-05-14T05:28:19.770Z,41.5708
2023-05-14T05:29:21.594Z,41.5910
2023-05-14T05:30:23.680Z,41.6157
2023-05-14T05:31:25.417Z,41.6299
2023-05-14T05:32:27.113Z,41.6500
2023-05-14T05:33:28.958Z,41.6615
2023-05-14T05:34:30.783Z,41.6725
2023-05-14T05:35:32.625Z,41.6807
2023-05-14T05:36:34.473Z,41.6805
2023-05-14T05:37:36.304Z,41.6953
2023-05-14T05:38:38.142Z,41.7128
2023-05-14T05:39:39.986Z,41.7155
2023-05-14T05:40:41.812Z,41.7299
2023-05-14T05:41:43.653Z,41.7511
2023-05-14T05:42:45.518Z,41.7590
2023-05-14T05:43:47.340Z,41.7747
2023-05-14T05:44:49.176Z,41.7980
2023-05-14T05:45:51.046Z,41.8116
2023-05-14T05:46:52.916Z,41.8289
2023-05-14T05:47:54.719Z,41.8302
2023-05-14T05:48:56.547Z,41.8267
2023-05-14T05:49:58.368Z,41.8137
2023-05-14T05:51:00.212Z,41.8094
2023-05-14T05:52:02.033Z,41.8040
2023-05-14T05:53:03.899Z,41.7947
2023-05-14T05:54:05.735Z,41.8106
2023-05-14T05:55:07.596Z,41.8207
2023-05-14T05:56:09.413Z,41.8291
2023-05-14T05:57:11.260Z,41.8370
2023-05-14T05:58:13.101Z,41.8502
2023-05-14T05:59:14.937Z,41.8507
2023-05-14T06:00:16.761Z,41.8575
2023-05-14T06:01:18.647Z,41.8672
2023-05-14T06:02:20.491Z,41.8830
2023-05-14T06:03:22.376Z,41.8855
2023-05-14T06:04:24.141Z,41.8951
2023-05-14T06:05:25.989Z,41.9095
2023-05-14T06:06:27.805Z,41.9338
2023-05-14T06:07:29.697Z,41.9613
2023-05-14T06:08:31.495Z,41.9946
2023-05-14T06:09:33.342Z,42.0155
2023-05-14T06:10:35.184Z,42.0285
2023-05-14T06:11:37.033Z,42.0456
2023-05-14T06:12:38.866Z,42.0675
2023-05-14T06:13:40.704Z,42.0899
2023-05-14T06:14:42.550Z,42.1091
2023-05-14T06:15:44.369Z,42.1333
2023-05-14T06:16:46.216Z,42.1513
2023-05-14T06:17:48.090Z,42.1944
2023-05-14T06:18:49.945Z,42.2187
2023-05-14T06:19:51.752Z,42.2403
2023-05-14T06:20:53.578Z,42.2486
2023-05-14T06:21:55.427Z,42.2574
2023-05-14T06:22:57.265Z,42.2757
2023-05-14T06:23:59.111Z,42.2982
2023-05-14T06:25:00.965Z,42.3109
2023-05-14T06:26:02.813Z,42.3262
2023-05-14T06:27:04.622Z,42.3387
2023-05-14T06:28:06.470Z,42.3449
2023-05-14T06:29:08.321Z,42.3651
2023-05-14T06:30:10.160Z,42.3745
2023-05-14T06:31:11.993Z,42.3896
2023-05-14T06:32:13.999Z,42.4005
2023-05-14T06:33:15.661Z,42.4149
2023-05-14T06:34:17.519Z,42.4340
2023-05-14T06:35:19.354Z,42.4379
2023-05-14T06:36:21.192Z,42.4507
2023-05-14T06:37:23.012Z,42.4645
2023-05-14T06:38:24.864Z,42.4780
2023-05-14T06:39:26.690Z,42.4894
2023-05-14T06:40:28.560Z,42.5066
2023-05-14T06:41:30.391Z,42.5433
2023-05-14T06:42:32.204Z,42.5781
2023-05-14T06:43:34.043Z,42.6055
2023-05-14T06:44:35.899Z,42.6149
2023-05-14T06:45:37.742Z,42.6302
2023-05-14T06:46:39.567Z,42.6652
2023-05-14T06:47:41.491Z,42.7036
2023-05-14T06:48:43.283Z,42.7292
2023-05-14T06:49:45.160Z,42.7609
2023-05-14T06:50:47.029Z,42.8062
2023-05-14T06:51:48.830Z,42.8534
2023-05-14T06:52:50.677Z,42.8791
2023-05-14T06:53:52.527Z,42.9207
2023-05-14T06:54:54.364Z,42.9560
2023-05-14T06:55:56.210Z,42.9804
2023-05-14T06:56:58.060Z,43.0189
2023-05-14T06:57:59.882Z,43.0430
2023-05-14T06:59:01.729Z,43.0649
2023-05-14T07:00:03.905Z,43.1166
2023-05-14T07:01:05.438Z,43.1849
2023-05-14T07:02:07.269Z,43.1997
2023-05-14T07:03:09.214Z,43.2460
2023-05-14T07:04:11.009Z,43.2863
2023-05-14T07:05:12.778Z,43.3377
2023-05-14T07:06:14.612Z,43.3532
2023-05-14T07:07:16.460Z,43.4346
2023-05-14T07:08:18.312Z,43.4403
2023-05-14T07:09:20.175Z,43.4761
2023-05-14T07:10:22.292Z,43.5323
2023-05-14T07:11:23.816Z,43.5664
2023-05-14T07:12:25.654Z,43.6207
2023-05-14T07:13:28.631Z,43.6499
2023-05-14T07:14:29.346Z,43.7296
2023-05-14T07:15:31.215Z,43.7851
2023-05-14T07:16:33.039Z,43.8071
2023-05-14T07:17:34.883Z,43.8529
2023-05-14T07:18:36.741Z,43.8855
2023-05-14T07:19:38.545Z,43.9232
2023-05-14T07:20:40.379Z,43.9512
2023-05-14T07:21:42.240Z,43.9814
2023-05-14T07:22:44.053Z,44.0153
2023-05-14T07:23:45.917Z,44.0674
2023-05-14T07:24:47.745Z,44.1232
2023-05-14T07:25:49.582Z,44.1657
2023-05-14T07:26:51.429Z,44.1953
2023-05-14T07:27:53.268Z,44.2204
2023-05-14T07:28:55.111Z,44.2697
2023-05-14T07:29:56.927Z,44.3359
2023-05-14T07:30:58.805Z,44.3645
2023-05-14T07:32:00.624Z,44.3749
2023-05-14T07:33:02.497Z,44.4294
2023-05-14T07:34:04.426Z,44.4644
2023-05-14T07:35:06.148Z,44.4892
2023-05-14T07:36:07.965Z,44.5485
2023-05-14T07:37:09.804Z,44.5935
2023-05-14T07:38:11.661Z,44.6180
2023-05-14T07:39:13.502Z,44.6593
2023-05-14T07:40:15.374Z,44.6924
2023-05-14T07:41:17.182Z,44.7631
2023-05-14T07:42:31.734Z,44.7925
2023-05-14T07:43:21.858Z,44.8586
2023-05-14T07:44:22.682Z,44.9661
2023-05-14T07:45:24.522Z,45.0055
2023-05-14T07:46:26.398Z,45.0001
2023-05-14T07:47:28.317Z,45.0526
2023-05-14T07:48:30.081Z,45.0482
2023-05-14T07:49:31.880Z,45.1092
2023-05-14T07:50:33.745Z,45.1813
2023-05-14T07:51:35.569Z,45.2149
2023-05-14T07:52:37.438Z,45.2648
2023-05-14T07:53:39.264Z,45.2897
2023-05-14T07:54:41.086Z,45.3093
2023-05-14T07:55:42.939Z,45.3720
2023-05-14T07:56:44.779Z,45.4135
2023-05-14T07:57:46.625Z,45.4390
2023-05-14T07:58:48.500Z,45.4632
2023-05-14T07:59:50.315Z,45.5102
2023-05-14T08:00:52.131Z,45.5475
2023-05-14T08:01:53.990Z,45.5603
2023-05-14T08:02:56.037Z,45.5630
2023-05-14T08:03:57.699Z,45.5856
2023-05-14T08:04:59.526Z,45.5894
2023-05-14T08:06:01.334Z,45.5871
2023-05-14T08:07:03.171Z,45.5869
2023-05-14T08:08:05.007Z,45.6059
2023-05-14T08:09:06.863Z,45.6268
2023-05-14T08:10:08.718Z,45.6419
2023-05-14T08:11:10.630Z,45.6467
2023-05-14T08:12:12.383Z,45.6404
2023-05-14T08:13:14.216Z,45.6258
2023-05-14T08:14:16.069Z,45.5877
2023-05-14T08:15:17.905Z,45.5574
2023-05-14T08:16:19.799Z,45.5365
2023-05-14T08:17:21.633Z,45.5166
2023-05-14T08:18:23.415Z,45.5229
2023-05-14T08:19:25.264Z,45.5001
2023-05-14T08:20:27.528Z,45.4987
2023-05-14T08:21:28.924Z,45.5016
2023-05-14T08:22:30.765Z,45.4958
2023-05-14T08:23:32.665Z,45.5119
2023-05-14T08:24:34.460Z,45.5333
2023-05-14T08:25:36.306Z,45.5539
2023-05-14T08:26:38.135Z,45.5596
2023-05-14T08:27:39.969Z,45.5789
2023-05-14T08:28:41.816Z,45.5873
2023-05-14T08:29:43.712Z,45.5933
2023-05-14T08:30:45.524Z,45.6049
2023-05-14T08:31:47.322Z,45.5899
2023-05-14T08:32:49.208Z,45.5874
2023-05-14T08:33:51.029Z,45.5985
2023-05-14T08:34:52.854Z,45.5975
2023-05-14T08:35:54.712Z,45.6068
2023-05-14T08:36:56.521Z,45.6020
2023-05-14T08:37:58.383Z,45.5870
2023-05-14T08:39:00.220Z,45.5796
2023-05-14T08:40:02.062Z,45.5726
2023-05-14T08:41:03.916Z,45.5588
2023-05-14T08:42:05.751Z,45.5324
2023-05-14T08:43:07.564Z,45.5095
2023-05-14T08:44:09.419Z,45.4907
2023-05-14T08:45:11.263Z,45.4942
2023-05-14T08:46:13.108Z,45.4944
2023-05-14T08:47:14.934Z,45.4977
2023-05-14T08:48:16.929Z,45.4998
2023-05-14T08:49:18.634Z,45.4930
2023-05-14T08:50:21.924Z,45.4985
2023-05-14T08:51:22.328Z,45.5033
2023-05-14T08:52:24.145Z,45.5128
2023-05-14T08:53:25.993Z,45.5133
2023-05-14T08:54:27.854Z,45.5052
2023-05-14T08:55:29.696Z,45.5028
2023-05-14T08:56:31.531Z,45.4850
2023-05-14T08:57:33.398Z,45.4665
2023-05-14T08:58:35.197Z,45.4373
2023-05-14T08:59:37.058Z,45.4275
2023-05-14T09:00:38.911Z,45.4180
2023-05-14T09:01:40.770Z,45.4110
2023-05-14T09:02:42.643Z,45.4045
2023-05-14T09:03:44.466Z,45.4125
2023-05-14T09:04:46.252Z,45.4234
2023-05-14T09:05:48.104Z,45.4323
2023-05-14T09:06:49.966Z,45.4281
2023-05-14T09:07:51.772Z,45.4214
2023-05-14T09:08:53.622Z,45.4114
2023-05-14T09:09:55.508Z,45.4172
2023-05-14T09:10:57.302Z,45.4259
2023-05-14T09:11:59.133Z,45.4463
2023-05-14T09:13:01.003Z,45.4687
2023-05-14T09:14:02.847Z,45.5127
2023-05-14T09:15:04.655Z,45.5371
2023-05-14T09:16:06.497Z,45.5827
2023-05-14T09:17:08.347Z,45.5949
2023-05-14T09:18:10.250Z,45.6341
2023-05-14T09:19:12.134Z,45.6412
2023-05-14T09:20:13.877Z,45.6645
2023-05-14T09:21:15.715Z,45.6566
2023-05-14T09:22:17.562Z,45.6232
2023-05-14T09:23:19.379Z,45.6004
2023-05-14T09:24:21.224Z,45.5523
2023-05-14T09:25:23.098Z,45.4621
2023-05-14T09:26:24.904Z,45.4256
2023-05-14T09:27:26.746Z,45.4088
2023-05-14T09:28:28.596Z,45.3845
2023-05-14T09:29:30.431Z,45.3607
2023-05-14T09:30:32.281Z,45.3653
2023-05-14T09:31:34.200Z,45.3532
2023-05-14T09:32:36.014Z,45.3304
2023-05-14T09:33:37.791Z,45.3035
2023-05-14T09:34:39.632Z,45.2841
2023-05-14T09:35:41.474Z,45.2829
2023-05-14T09:36:43.309Z,45.2656
2023-05-14T09:37:45.138Z,45.2497
2023-05-14T09:38:46.988Z,45.2405
2023-05-14T09:39:48.821Z,45.2425
2023-05-14T09:40:50.663Z,45.2499
2023-05-14T09:41:52.484Z,45.2535
2023-05-14T09:42:54.352Z,45.2714
2023-05-14T09:43:56.160Z,45.2820
2023-05-14T09:44:58.008Z,45.2868
2023-05-14T09:45:59.856Z,45.2849
2023-05-14T09:47:01.692Z,45.2795
2023-05-14T09:48:03.642Z,45.2782
2023-05-14T09:49:05.392Z,45.3045
2023-05-14T09:50:07.208Z,45.3314
2023-05-14T09:51:09.041Z,45.3481
2023-05-14T09:52:10.860Z,45.3530
2023-05-14T09:53:12.692Z,45.3540
2023-05-14T09:54:14.532Z,45.3463
2023-05-14T09:55:16.412Z,45.3728
2023-05-14T09:56:18.222Z,45.4104
2023-05-14T09:57:20.056Z,45.4922
2023-05-14T09:58:21.883Z,45.5519
2023-05-14T09:59:23.715Z,45.6102
2023-05-14T10:00:25.799Z,45.6749
2023-05-14T10:01:27.444Z,45.7368
2023-05-14T10:02:29.272Z,45.8036
2023-05-14T10:03:31.061Z,45.8653
2023-05-14T10:04:33.015Z,45.9186
2023-05-14T10:05:34.750Z,45.9412
2023-05-14T10:06:36.572Z,45.9751
2023-05-14T10:07:38.460Z,46.0041
2023-05-14T10:08:40.353Z,46.0277
2023-05-14T10:09:42.102Z,46.0526
2023-05-14T10:10:43.938Z,46.0804
2023-05-14T10:11:45.774Z,46.1162
2023-05-14T10:12:47.600Z,46.1141
2023-05-14T10:13:49.470Z,46.1079
2023-05-14T10:14:51.291Z,46.1191
2023-05-14T10:15:53.124Z,46.1230
2023-05-14T10:16:54.980Z,46.1432
2023-05-14T10:17:56.812Z,46.1188
2023-05-14T10:18:58.670Z,46.0727
2023-05-14T10:20:00.492Z,46.0427
2023-05-14T10:21:02.308Z,46.0114
2023-05-14T10:22:04.244Z,45.9735
2023-05-14T10:23:05.960Z,45.9513
2023-05-14T10:24:07.809Z,45.9479
2023-05-14T10:25:09.653Z,45.9495
2023-05-14T10:26:11.494Z,45.9358
2023-05-14T10:27:13.317Z,45.8938
2023-05-14T10:28:15.146Z,45.8456
2023-05-14T10:29:16.968Z,45.8222
2023-05-14T10:30:18.940Z,45.8018
2023-05-14T10:31:20.710Z,45.8209
2023-05-14T10:32:22.482Z,45.8349
2023-05-14T10:33:24.324Z,45.8243
2023-05-14T10:34:26.167Z,45.8434
2023-05-14T10:35:28.014Z,45.8780
2023-05-14T10:36:29.845Z,45.9218
2023-05-14T10:37:31.687Z,45.9257
2023-05-14T10:38:33.505Z,45.9028
2023-05-14T10:39:35.346Z,45.8631
2023-05-14T10:40:37.182Z,45.8277
2023-05-14T10:41:39.020Z,45.7946
2023-05-14T10:42:40.891Z,45.7799
2023-05-14T10:43:42.734Z,45.7341
2023-05-14T10:44:44.519Z,45.6842
2023-05-14T10:45:46.372Z,45.6114
2023-05-14T10:46:48.275Z,45.5648
2023-05-14T10:47:50.055Z,45.5364
2023-05-14T10:48:51.870Z,45.5007
2023-05-14T10:49:53.740Z,45.4244
2023-05-14T10:50:55.588Z,45.3874
2023-05-14T10:51:57.397Z,45.3395
2023-05-14T10:52:59.311Z,45.3314
2023-05-14T10:54:01.129Z,45.3122
2023-05-14T10:55:03.845Z,45.2913
2023-05-14T10:56:04.845Z,45.3104
2023-05-14T10:57:06.651Z,45.3239
2023-05-14T10:58:08.487Z,45.3227
2023-05-14T10:59:10.311Z,45.3292
2023-05-14T11:00:12.144Z,45.3278
2023-05-14T11:01:14.001Z,45.2915
2023-05-14T11:02:16.050Z,45.2674
2023-05-14T11:03:17.698Z,45.2620
2023-05-14T11:04:19.637Z,45.2764
2023-05-14T11:05:21.335Z,45.3025
2023-05-14T11:06:23.181Z,45.3398
2023-05-14T11:07:25.023Z,45.3080
2023-05-14T11:08:28.064Z,45.2760
2023-05-14T11:09:28.692Z,45.2124
2023-05-14T11:10:30.516Z,45.1454
2023-05-14T11:11:32.362Z,45.1137
2023-05-14T11:12:34.204Z,45.0925
2023-05-14T11:13:36.033Z,45.1091
2023-05-14T11:14:37.891Z,45.1856
2023-05-14T11:15:39.711Z,45.2725
2023-05-14T11:16:41.563Z,45.3562
2023-05-14T11:17:43.464Z,45.3997
2023-05-14T11:18:45.249Z,45.4089
2023-05-14T11:19:48.343Z,45.4363
2023-05-14T11:20:48.924Z,45.4400
2023-05-14T11:21:50.781Z,45.4252
2023-05-14T11:22:52.571Z,45.4210
2023-05-14T11:23:54.397Z,45.4236
2023-05-14T11:24:56.230Z,45.4386
2023-05-14T11:25:58.112Z,45.4636
2023-05-14T11:26:59.928Z,45.4978
2023-05-14T11:28:01.761Z,45.4688
2023-05-14T11:29:03.606Z,45.4447
2023-05-14T11:30:05.423Z,45.4048
2023-05-14T11:31:07.265Z,45.3858
2023-05-14T11:32:09.210Z,45.3561
2023-05-14T11:33:11.011Z,45.3489
2023-05-14T11:34:12.818Z,45.3390
2023-05-14T11:35:14.630Z,45.3473
2023-05-14T11:36:16.453Z,45.3402
2023-05-14T11:37:18.287Z,45.3321
2023-05-14T11:38:20.129Z,45.3342
2023-05-14T11:39:21.969Z,45.3242
2023-05-14T11:40:23.931Z,45.2819
2023-05-14T11:41:25.630Z,45.2624
2023-05-14T11:42:27.469Z,45.2514
2023-05-14T11:43:29.477Z,45.2269
2023-05-14T11:44:31.172Z,45.2361
2023-05-14T11:45:33.006Z,45.2439
2023-05-14T11:46:34.965Z,45.2505
2023-05-14T11:47:36.730Z,45.2413
2023-05-14T11:48:38.519Z,45.2194
2023-05-14T11:49:40.347Z,45.2127
2023-05-14T11:50:42.181Z,45.2149
2023-05-14T11:51:44.007Z,45.2109
2023-05-14T11:52:45.883Z,45.2146
2023-05-14T11:53:47.693Z,45.2053
2023-05-14T11:54:49.546Z,45.2010
2023-05-14T11:55:51.371Z,45.2072
2023-05-14T11:56:53.195Z,45.2027
2023-05-14T11:57:55.051Z,45.1902
2023-05-14T11:58:56.940Z,45.1328
2023-05-14T11:59:58.732Z,45.0837
2023-05-14T12:01:00.556Z,45.0510
2023-05-14T12:02:02.452Z,44.9989
2023-05-14T12:03:04.384Z,44.9765
2023-05-14T12:04:06.178Z,44.9638
2023-05-14T12:05:07.942Z,44.9596
2023-05-14T12:06:09.745Z,44.9513
2023-05-14T12:07:11.594Z,44.9428
2023-05-14T12:08:13.476Z,44.9322
2023-05-14T12:09:15.281Z,44.9106
2023-05-14T12:10:17.112Z,44.8897
2023-05-14T12:11:18.964Z,44.8887
2023-05-14T12:12:20.784Z,44.8445
2023-05-14T12:13:22.650Z,44.7916
2023-05-14T12:14:24.490Z,44.7073
2023-05-14T12:15:26.326Z,44.6307
2023-05-14T12:16:28.218Z,44.5022
2023-05-14T12:17:30.019Z,44.4246
2023-05-14T12:18:31.970Z,44.3435
2023-05-14T12:19:33.674Z,44.2463
2023-05-14T12:20:35.517Z,44.1830
2023-05-14T12:21:37.368Z,44.1200
2023-05-14T12:22:39.195Z,44.1123
2023-05-14T12:23:41.062Z,44.1138
2023-05-14T12:24:42.908Z,44.1055
2023-05-14T12:25:44.705Z,44.1074
2023-05-14T12:26:46.558Z,44.1316
2023-05-14T12:27:48.400Z,44.1559